Relief — WDC8380 — position and weather

sailwx.info

Track history (hours):
 
Tides and Currents Weather Stations Pressure Air Temp Water Temp Dewpoint Dewpoint Depression Visibility Wind Speed Wind Dir Waves Ship Positions

Relief

Owner: VIRGINIA PILOT BOAT CORPORATION, VIRGINIA BEACH, VA. More information available from US FCC via Universal Licensing System and Coast Guard Vessel Documentation Center.

Last reported at 2017-Oct-22 17:01 UTC. Time now 2017-Oct-22 17:05 UTC.
Position N 45°56' W 122°49'.

Length 13 m; draft 1 m.

Type: Pilot. MMSI: 367086140.

Date/timePositionNaut miles runAvg speedWind from/ knotsBaromVisibWave heightAir tempDewpointWater temp
2017-Oct-22 17:01N 45°56' W 122°49'1223.1
2017-Oct-22 16:30N 46°06' W 122°56'611.3
2017-Oct-22 16:01N 46°01' W 122°52'1325.2
2017-Oct-22 15:31N 45°49' W 122°48'10 0.5
2017-Oct-21 17:19N 45°39' W 122°45'0 0.0
2017-Oct-21 17:00N 45°39' W 122°45'0 0.0
2017-Oct-21 16:31N 45°39' W 122°45'0 0.0
2017-Oct-21 16:00N 45°39' W 122°45'0 0.0
2017-Oct-21 15:30N 45°39' W 122°45'0 0.0
2017-Oct-21 15:00N 45°39' W 122°45'0 0.0
2017-Oct-21 14:01N 45°39' W 122°45'0 0.0
2017-Oct-21 13:31N 45°39' W 122°45'0 0.0
2017-Oct-21 13:01N 45°39' W 122°45'0 0.0
2017-Oct-21 12:31N 45°39' W 122°45'0 0.0
2017-Oct-21 11:59N 45°39' W 122°45'0 0.0
2017-Oct-21 11:31N 45°39' W 122°45'0 0.0
2017-Oct-21 11:01N 45°39' W 122°45'0 0.0
2017-Oct-21 10:31N 45°39' W 122°45'0 0.0
2017-Oct-21 10:00N 45°39' W 122°45'0 0.0
2017-Oct-21 09:30N 45°39' W 122°45'0 0.0
2017-Oct-21 09:01N 45°39' W 122°45'0 0.0
2017-Oct-21 08:30N 45°39' W 122°45'0 0.0
2017-Oct-21 08:00N 45°39' W 122°45'0 0.0
2017-Oct-21 07:30N 45°39' W 122°45'0 0.0
2017-Oct-21 07:00N 45°39' W 122°45'0 0.0
2017-Oct-21 06:30N 45°39' W 122°45'0 0.0
2017-Oct-21 06:00N 45°39' W 122°45'0 0.0
2017-Oct-21 05:30N 45°39' W 122°45'0 0.0
2017-Oct-21 05:00N 45°39' W 122°45'0 0.0
2017-Oct-21 04:30N 45°39' W 122°45'0 0.0
2017-Oct-21 04:00N 45°39' W 122°45'1 1.6
2017-Oct-21 03:31N 45°39' W 122°46'1325.7
2017-Oct-21 03:00N 45°52' W 122°47'915.9
2017-Oct-21 02:28N 46°01' W 122°51'0 0.0
2017-Oct-21 01:59N 46°01' W 122°51'0 0.0
2017-Oct-21 01:31N 46°01' W 122°51'0 0.0
2017-Oct-21 01:00N 46°01' W 122°51'0 0.0
2017-Oct-21 00:24N 46°01' W 122°51'0 0.0
2017-Oct-20 23:17N 46°01' W 122°51'0 0.0
2017-Oct-20 22:58N 46°01' W 122°51'0 0.0
2017-Oct-20 22:30N 46°01' W 122°51'0 0.0
2017-Oct-20 22:00N 46°01' W 122°51'0 0.0
2017-Oct-20 21:29N 46°01' W 122°51'0 0.0
2017-Oct-20 21:00N 46°01' W 122°51'0 0.0
2017-Oct-20 20:30N 46°01' W 122°51'0 0.0
2017-Oct-20 19:57N 46°01' W 122°51'0 0.0
2017-Oct-20 19:26N 46°01' W 122°51'0 0.0
2017-Oct-20 18:59N 46°01' W 122°51'0 0.0
2017-Oct-20 18:30N 46°01' W 122°51'0 0.0
2017-Oct-20 18:00N 46°01' W 122°51'0 0.1
2017-Oct-20 17:30N 46°01' W 122°51'0 0.0
2017-Oct-20 17:00N 46°01' W 122°51'0 0.0
2017-Oct-20 16:30N 46°01' W 122°51'0 0.0
2017-Oct-20 16:00N 46°01' W 122°51'0 0.0
2017-Oct-20 15:30N 46°01' W 122°51'1 2.3
2017-Oct-20 15:01N 46°01' W 122°52'1 1.2
2017-Oct-20 14:00N 46°01' W 122°51'0 0.0
2017-Oct-20 13:28N 46°01' W 122°51'2 3.6
2017-Oct-20 13:00N 45°59' W 122°50'0 0.0
2017-Oct-20 12:31N 45°59' W 122°50'0 0.0
2017-Oct-20 12:00N 45°59' W 122°50'0 0.0
2017-Oct-20 11:30N 45°59' W 122°50'2 3.4
2017-Oct-20 11:00N 46°01' W 122°51'0 0.0
2017-Oct-20 10:30N 46°01' W 122°51'0 0.0
2017-Oct-20 10:00N 46°01' W 122°51'0 0.0
2017-Oct-20 09:30N 46°01' W 122°51'0 0.0
2017-Oct-20 09:00N 46°01' W 122°51'0 0.0
2017-Oct-20 08:30N 46°01' W 122°51'0 0.0
2017-Oct-20 08:01N 46°01' W 122°51'0 0.0
2017-Oct-20 07:30N 46°01' W 122°51'0 0.0
2017-Oct-20 06:59N 46°01' W 122°51'0 0.0
2017-Oct-20 06:31N 46°01' W 122°51'0 0.1
2017-Oct-20 05:57N 46°01' W 122°51'0 0.1
2017-Oct-20 05:31N 46°01' W 122°51'714.3
2017-Oct-20 05:00N 45°54' W 122°48'1121.0
2017-Oct-20 04:30N 45°43' W 122°46'510.5
2017-Oct-20 04:00N 45°38' W 122°43'0 0.1
2017-Oct-20 03:30N 45°38' W 122°43'0 0.1
2017-Oct-20 03:00N 45°38' W 122°43'0 0.0
2017-Oct-20 02:30N 45°38' W 122°43'2 3.0
2017-Oct-20 02:00N 45°39' W 122°45'1 2.6
2017-Oct-20 01:30N 45°40' W 122°46'1325.9
2017-Oct-20 01:01N 45°53' W 122°48'8 0.3
2017-Oct-18 16:31N 46°01' W 122°51'0 0.8
2017-Oct-18 16:30N 46°01' W 122°51'0 0.0
2017-Oct-18 15:52N 46°01' W 122°51'0 0.0
2017-Oct-18 15:24N 46°01' W 122°51'0 0.0
2017-Oct-18 15:01N 46°01' W 122°51'0 0.0
2017-Oct-18 14:00N 46°01' W 122°51'0 0.0
2017-Oct-18 13:30N 46°01' W 122°51'0 0.0
2017-Oct-18 12:44N 46°01' W 122°51'0 0.0
2017-Oct-18 12:26N 46°01' W 122°51'0 0.0
2017-Oct-18 12:00N 46°01' W 122°51'0 0.0
2017-Oct-18 11:30N 46°01' W 122°51'0 0.0
2017-Oct-18 11:00N 46°01' W 122°51'0 0.0
2017-Oct-18 10:29N 46°01' W 122°51'0 0.0
2017-Oct-18 09:52N 46°01' W 122°51'0 0.0
2017-Oct-18 09:29N 46°01' W 122°51'0 0.0
2017-Oct-18 08:47N 46°01' W 122°51'0 0.0
2017-Oct-18 08:18N 46°01' W 122°51'0 0.0
2017-Oct-18 08:01N 46°01' W 122°51'0 0.0
2017-Oct-18 07:31N 46°01' W 122°51'0 0.0
2017-Oct-18 06:59N 46°01' W 122°51'0 0.0
2017-Oct-18 06:31N 46°01' W 122°51'0 0.0
2017-Oct-18 05:45N 46°01' W 122°51'0 0.0
2017-Oct-18 05:30N 46°01' W 122°51'0 0.0
2017-Oct-18 05:00N 46°01' W 122°51'2 3.2
2017-Oct-18 04:30N 45°59' W 122°50'0 0.1
2017-Oct-18 04:01N 45°59' W 122°50'1 1.4
2017-Oct-18 03:30N 45°60' W 122°51'612.4
2017-Oct-18 03:01N 46°05' W 122°55'1 2.3
2017-Oct-18 02:30N 46°06' W 122°55'1 1.9
2017-Oct-18 02:01N 46°06' W 122°55'815.2
2017-Oct-18 01:30N 45°59' W 122°50'0 0.0
2017-Oct-18 01:00N 45°59' W 122°50'2 3.4
2017-Oct-18 00:30N 46°01' W 122°51'815.7
2017-Oct-18 00:01N 46°07' W 122°58'0 0.9
2017-Oct-17 23:31N 46°07' W 122°58'815.7
2017-Oct-17 23:00N 46°01' W 122°51'611.8
2017-Oct-17 22:30N 46°06' W 122°55'2 4.6
2017-Oct-17 22:01N 46°04' W 122°54'4 7.8
2017-Oct-17 21:30N 46°01' W 122°51'4 8.9
2017-Oct-17 21:01N 46°04' W 122°54'510.3
2017-Oct-17 20:31N 46°08' W 122°60'918.1
2017-Oct-17 20:01N 46°01' W 122°51'0 0.7
2017-Oct-17 19:30N 46°01' W 122°51'0 1.0
2017-Oct-17 19:00N 46°01' W 122°52'0 1.0
2017-Oct-17 18:30N 46°01' W 122°51'0 0.0
2017-Oct-17 18:00N 46°01' W 122°51'0 0.0
2017-Oct-17 17:30N 46°01' W 122°51'0 0.0
2017-Oct-17 17:00N 46°01' W 122°51'0 0.1
2017-Oct-17 16:31N 46°01' W 122°51'0 0.0
2017-Oct-17 16:00N 46°01' W 122°51'0 0.0
2017-Oct-17 15:17N 46°01' W 122°51'0 0.0
2017-Oct-17 14:59N 46°01' W 122°51'1 1.7
2017-Oct-17 14:31N 46°01' W 122°52'1223.6
2017-Oct-17 14:01N 46°09' W 123°04'510.5
2017-Oct-17 13:30N 46°06' W 122°58'812.9
2017-Oct-17 12:56N 46°01' W 122°51'0 0.0
2017-Oct-17 12:14N 46°01' W 122°51'0 0.0
2017-Oct-17 12:00N 46°01' W 122°51'0 0.0
2017-Oct-17 11:30N 46°01' W 122°51'0 0.0
2017-Oct-17 11:00N 46°01' W 122°51'0 0.0
2017-Oct-17 10:29N 46°01' W 122°51'0 0.0
2017-Oct-17 09:57N 46°01' W 122°51'0 0.0
2017-Oct-17 09:26N 46°01' W 122°51'0 0.0
2017-Oct-17 08:59N 46°01' W 122°51'0 0.0
2017-Oct-17 08:30N 46°01' W 122°51'0 0.0
2017-Oct-17 08:00N 46°01' W 122°51'0 0.0
2017-Oct-17 07:30N 46°01' W 122°51'0 0.0
2017-Oct-17 07:00N 46°01' W 122°51'0 0.0
2017-Oct-17 06:29N 46°01' W 122°51'0 0.0
2017-Oct-17 06:00N 46°01' W 122°51'0 0.0
2017-Oct-17 05:21N 46°01' W 122°51'0 0.0
2017-Oct-17 05:00N 46°01' W 122°51'0 0.0
2017-Oct-17 04:30N 46°01' W 122°51'0 0.0
2017-Oct-17 04:00N 46°01' W 122°51'0 0.0
2017-Oct-17 03:30N 46°01' W 122°51'0 0.0
2017-Oct-17 03:00N 46°01' W 122°51'0 0.0
2017-Oct-17 02:30N 46°01' W 122°51'0 0.0
2017-Oct-17 02:00N 46°01' W 122°51'0 0.0
2017-Oct-17 01:30N 46°01' W 122°51'1 2.4
2017-Oct-17 01:01N 46°01' W 122°52'1020.1
2017-Oct-17 00:30N 46°09' W 123°02'3 6.2
2017-Oct-17 00:01N 46°07' W 122°58'816.3
2017-Oct-16 23:30N 46°01' W 122°51'0 0.0
2017-Oct-16 23:00N 46°01' W 122°51'0 0.0
2017-Oct-16 22:30N 46°01' W 122°51'0 0.0
2017-Oct-16 21:58N 46°01' W 122°51'0 0.0
2017-Oct-16 21:27N 46°01' W 122°51'0 0.0
2017-Oct-16 20:59N 46°01' W 122°51'0 0.0
2017-Oct-16 20:30N 46°01' W 122°51'0 0.0
2017-Oct-16 20:00N 46°01' W 122°51'0 0.0
2017-Oct-16 19:29N 46°01' W 122°51'0 0.0
2017-Oct-16 19:00N 46°01' W 122°51'0 0.0
2017-Oct-16 18:29N 46°01' W 122°51'0 0.0
2017-Oct-16 18:00N 46°01' W 122°51'0 0.0
2017-Oct-16 17:30N 46°01' W 122°51'0 0.0
2017-Oct-16 17:00N 46°01' W 122°51'0 0.0
2017-Oct-16 16:30N 46°01' W 122°51'0 0.0
2017-Oct-16 15:58N 46°01' W 122°51'0 0.0
2017-Oct-16 15:24N 46°01' W 122°51'0 0.1
2017-Oct-16 15:01N 46°01' W 122°51'7 7.4
2017-Oct-16 14:00N 46°06' W 122°58'5 9.7
2017-Oct-16 13:30N 46°03' W 122°53'3 5.0
2017-Oct-16 12:58N 46°01' W 122°51'0 0.0
2017-Oct-16 12:25N 46°01' W 122°51'0 0.0
2017-Oct-16 12:00N 46°01' W 122°51'0 0.0
2017-Oct-16 11:30N 46°01' W 122°51'0 0.0
2017-Oct-16 11:00N 46°01' W 122°51'0 0.0
2017-Oct-16 10:30N 46°01' W 122°51'0 0.0
2017-Oct-16 10:00N 46°01' W 122°51'0 0.0
2017-Oct-16 09:26N 46°01' W 122°51'0 0.0
2017-Oct-16 08:58N 46°01' W 122°51'0 0.0
2017-Oct-16 08:31N 46°01' W 122°51'0 0.0
2017-Oct-16 08:00N 46°01' W 122°51'0 0.0
2017-Oct-16 07:20N 46°01' W 122°51'0 0.0
2017-Oct-16 07:00N 46°01' W 122°51'0 0.0
2017-Oct-16 06:30N 46°01' W 122°51'0 0.0
2017-Oct-16 06:00N 46°01' W 122°51'0 0.0
2017-Oct-16 05:20N 46°01' W 122°51'0 0.0
2017-Oct-16 05:00N 46°01' W 122°51'0 0.0
2017-Oct-16 04:30N 46°01' W 122°51'0 0.0
2017-Oct-16 04:00N 46°01' W 122°51'0 0.0
2017-Oct-16 03:30N 46°01' W 122°51'0 0.0
2017-Oct-16 03:00N 46°01' W 122°51'0 0.0
2017-Oct-16 02:30N 46°01' W 122°51'0 0.0
2017-Oct-16 02:00N 46°01' W 122°51'0 0.0
2017-Oct-16 01:30N 46°01' W 122°51'815.1
2017-Oct-16 01:01N 46°06' W 122°58'510.2
2017-Oct-16 00:30N 46°09' W 123°04'1225.0
2017-Oct-16 00:00N 46°01' W 122°51'0 0.0
2017-Oct-15 23:30N 46°01' W 122°51'0 0.0
2017-Oct-15 23:00N 46°01' W 122°51'0 0.0
2017-Oct-15 22:31N 46°01' W 122°51'0 0.0
2017-Oct-15 22:00N 46°01' W 122°51'0 0.0
2017-Oct-15 21:30N 46°01' W 122°51'0 0.0
2017-Oct-15 21:01N 46°01' W 122°51'0 0.0
2017-Oct-15 20:29N 46°01' W 122°51'0 0.0
2017-Oct-15 19:58N 46°01' W 122°51'0 0.0
2017-Oct-15 19:25N 46°01' W 122°51'0 0.0
2017-Oct-15 18:59N 46°01' W 122°51'0 0.0
2017-Oct-15 18:30N 46°01' W 122°51'0 0.0
2017-Oct-15 17:59N 46°01' W 122°51'0 0.0
2017-Oct-15 17:30N 46°01' W 122°51'0 0.0
2017-Oct-15 16:59N 46°01' W 122°51'0 0.1
2017-Oct-15 16:30N 46°01' W 122°51'1020.4
2017-Oct-15 16:01N 46°08' W 123°01'3 5.4
2017-Oct-15 15:30N 46°06' W 122°58'714.7
2017-Oct-15 15:01N 46°01' W 122°51'0 0.2
2017-Oct-15 13:54N 46°01' W 122°51'0 0.0
2017-Oct-15 13:28N 46°01' W 122°51'0 0.0
2017-Oct-15 13:00N 46°01' W 122°51'0 0.0
2017-Oct-15 12:26N 46°01' W 122°51'0 0.0
2017-Oct-15 12:00N 46°01' W 122°51'0 0.0
2017-Oct-15 11:31N 46°01' W 122°51'0 0.0
2017-Oct-15 10:58N 46°01' W 122°51'0 0.0
2017-Oct-15 10:29N 46°01' W 122°51'0 0.0
2017-Oct-15 10:00N 46°01' W 122°51'0 0.0
2017-Oct-15 09:27N 46°01' W 122°51'0 0.0
2017-Oct-15 09:00N 46°01' W 122°51'0 0.0
2017-Oct-15 08:30N 46°01' W 122°51'0 0.0
2017-Oct-15 08:01N 46°01' W 122°51'0 0.0
2017-Oct-15 07:30N 46°01' W 122°51'0 0.0
2017-Oct-15 07:00N 46°01' W 122°51'0 0.0
2017-Oct-15 06:30N 46°01' W 122°51'0 0.0
2017-Oct-15 05:49N 46°01' W 122°51'0 0.0
2017-Oct-15 05:30N 46°01' W 122°51'0 0.0
2017-Oct-15 05:00N 46°01' W 122°51'0 0.0
2017-Oct-15 04:30N 46°01' W 122°51'0 0.0
2017-Oct-15 04:00N 46°01' W 122°51'0 0.0
2017-Oct-15 03:30N 46°01' W 122°51'0 0.0
2017-Oct-15 03:01N 46°01' W 122°51'0 0.0
2017-Oct-15 02:29N 46°01' W 122°51'0 0.0
2017-Oct-15 01:41N 46°01' W 122°51'0 0.0
2017-Oct-15 01:20N 46°01' W 122°51'3 8.1
2017-Oct-15 01:01N 46°03' W 122°53'1122.4
2017-Oct-15 00:30N 46°10' W 123°05'1122.6
2017-Oct-15 00:01N 46°03' W 122°53'510.2
2017-Oct-14 23:30N 45°58' W 122°50'1828.3
2017-Oct-14 22:53N 45°41' W 122°46'2 5.7
2017-Oct-14 22:30N 45°39' W 122°45'0 0.0
2017-Oct-14 22:00N 45°39' W 122°45'0 0.0
2017-Oct-14 21:30N 45°39' W 122°45'0 0.0
2017-Oct-14 21:00N 45°39' W 122°45'0 0.0
2017-Oct-14 20:30N 45°39' W 122°45'0 0.0
2017-Oct-14 20:00N 45°39' W 122°45'0 0.0
2017-Oct-14 19:30N 45°39' W 122°45'0 0.0
2017-Oct-14 19:00N 45°39' W 122°45'0 0.0
2017-Oct-14 18:30N 45°39' W 122°45'0 0.0
2017-Oct-14 18:00N 45°39' W 122°45'0 0.0
2017-Oct-14 17:30N 45°39' W 122°45'0 0.0
2017-Oct-14 17:00N 45°39' W 122°45'0 0.0
2017-Oct-14 16:30N 45°39' W 122°45'0 0.0
2017-Oct-14 16:00N 45°39' W 122°45'0 0.0
2017-Oct-14 15:30N 45°39' W 122°45'0 0.0
2017-Oct-14 15:00N 45°39' W 122°45'0 0.0
2017-Oct-14 14:30N 45°39' W 122°45'0 0.0
2017-Oct-14 14:00N 45°39' W 122°45'0 0.0
2017-Oct-14 13:30N 45°39' W 122°45'0 0.0
2017-Oct-14 13:00N 45°39' W 122°45'0 0.0
2017-Oct-14 12:30N 45°39' W 122°45'0 0.0
2017-Oct-14 12:00N 45°39' W 122°45'0 0.0
2017-Oct-14 11:30N 45°39' W 122°45'0 0.0
2017-Oct-14 11:00N 45°39' W 122°45'0 0.0
2017-Oct-14 10:30N 45°39' W 122°45'0 0.0
2017-Oct-14 10:00N 45°39' W 122°45'0 0.0
2017-Oct-14 09:30N 45°39' W 122°45'0 0.0
2017-Oct-14 09:00N 45°39' W 122°45'0 0.0
2017-Oct-14 08:30N 45°39' W 122°45'0 0.0
2017-Oct-14 08:00N 45°39' W 122°45'0 0.0
2017-Oct-14 07:30N 45°39' W 122°45'0 0.0
2017-Oct-14 06:58N 45°39' W 122°45'0 0.0
2017-Oct-14 06:30N 45°39' W 122°45'2 3.8
2017-Oct-14 06:00N 45°40' W 122°46'2 3.9
2017-Oct-14 05:30N 45°39' W 122°45'1418.0
2017-Oct-14 04:45N 45°52' W 122°48'0 0.1
2017-Oct-14 04:27N 45°52' W 122°48'919.8
2017-Oct-14 04:00N 46°01' W 122°51'0 0.1
2017-Oct-14 03:21N 46°01' W 122°51'0 0.0
2017-Oct-14 03:01N 46°01' W 122°51'0 0.0
2017-Oct-14 02:30N 46°01' W 122°51'0 0.0
2017-Oct-14 02:00N 46°01' W 122°51'0 0.0
2017-Oct-14 01:30N 46°01' W 122°51'0 0.0
2017-Oct-14 01:00N 46°01' W 122°51'0 0.0
2017-Oct-14 00:30N 46°01' W 122°51'0 0.0
2017-Oct-14 00:00N 46°01' W 122°51'0 0.0
2017-Oct-13 23:31N 46°01' W 122°51'0 0.0
2017-Oct-13 23:00N 46°01' W 122°51'0 0.0
2017-Oct-13 22:30N 46°01' W 122°51'0 0.0
2017-Oct-13 21:58N 46°01' W 122°51'4 5.9
2017-Oct-13 21:15N 46°04' W 122°54'625.3
2017-Oct-13 21:00N 46°08' W 123°01'0 0.8
2017-Oct-13 20:30N 46°08' W 123°01'3 6.5
2017-Oct-13 20:00N 46°06' W 122°58'1 2.2
2017-Oct-13 19:30N 46°06' W 122°56'612.9
2017-Oct-13 19:01N 46°01' W 122°51'0 0.0
2017-Oct-13 18:20N 46°01' W 122°51'0 0.0
2017-Oct-13 17:55N 46°01' W 122°51'0 0.0
2017-Oct-13 17:14N 46°01' W 122°51'0 0.0
2017-Oct-13 17:00N 46°01' W 122°51'0 0.0
2017-Oct-13 16:31N 46°01' W 122°51'0 0.0
2017-Oct-13 15:55N 46°01' W 122°51'0 0.0
2017-Oct-13 15:30N 46°01' W 122°51'0 0.0
2017-Oct-13 15:00N 46°01' W 122°51'0 0.0
2017-Oct-13 14:30N 46°01' W 122°51'0 0.0
2017-Oct-13 13:50N 46°01' W 122°51'0 0.1
2017-Oct-13 13:30N 46°01' W 122°51'0 0.0
2017-Oct-13 12:45N 46°01' W 122°51'0 0.2
2017-Oct-13 12:30N 46°01' W 122°51'0 0.1
2017-Oct-13 11:56N 46°01' W 122°51'0 0.0
2017-Oct-13 11:30N 46°01' W 122°51'0 0.0
2017-Oct-13 10:57N 46°01' W 122°51'0 0.0
2017-Oct-13 10:28N 46°01' W 122°51'0 0.0
2017-Oct-13 10:00N 46°01' W 122°51'0 0.0
2017-Oct-13 09:15N 46°01' W 122°51'0 0.0
2017-Oct-13 09:00N 46°01' W 122°51'0 0.0
2017-Oct-13 08:31N 46°01' W 122°51'0 0.0
2017-Oct-13 07:52N 46°01' W 122°51'0 0.0
2017-Oct-13 07:30N 46°01' W 122°51'0 0.0
2017-Oct-13 07:00N 46°01' W 122°51'0 0.0
2017-Oct-13 06:28N 46°01' W 122°51'0 0.0
2017-Oct-13 05:55N 46°01' W 122°51'0 0.0
2017-Oct-13 05:30N 46°01' W 122°51'0 0.0
2017-Oct-13 05:00N 46°01' W 122°51'0 0.0
2017-Oct-13 04:30N 46°01' W 122°51'0 0.0
2017-Oct-13 04:00N 46°01' W 122°51'0 0.0
2017-Oct-13 03:30N 46°01' W 122°51'0 0.0
2017-Oct-13 03:01N 46°01' W 122°51'0 0.0
2017-Oct-13 02:19N 46°01' W 122°51'0 0.0
2017-Oct-13 02:01N 46°01' W 122°51'0 0.0
2017-Oct-13 01:30N 46°01' W 122°51'0 0.0
2017-Oct-13 00:59N 46°01' W 122°51'612.9
2017-Oct-13 00:31N 46°06' W 122°56'0 0.6
2017-Oct-13 00:00N 46°06' W 122°56'816.4
2017-Oct-12 23:30N 46°10' W 123°06'2 4.9
2017-Oct-12 23:00N 46°09' W 123°03'510.0
2017-Oct-12 22:31N 46°06' W 122°57'714.7
2017-Oct-12 22:01N 46°10' W 123°06'7 2.1
2017-Oct-12 18:46N 46°06' W 122°58'1 5.5
2017-Oct-12 18:30N 46°07' W 122°59'0 0.3
2017-Oct-12 18:01N 46°08' W 122°59'0 0.2
2017-Oct-12 17:30N 46°08' W 122°59'  
Track history (hours):
 
Tides and Currents Weather Stations Pressure Air Temp Water Temp Dewpoint Dewpoint Depression Visibility Wind Speed Wind Dir Waves Ship Positions

Relief

Owner: VIRGINIA PILOT BOAT CORPORATION, VIRGINIA BEACH, VA. More information available from US FCC via Universal Licensing System and Coast Guard Vessel Documentation Center.

Last reported at 2017-Oct-22 17:01 UTC. Time now 2017-Oct-22 17:05 UTC.
Position N 45°56' W 122°49'.

Length 13 m; draft 1 m.

Type: Pilot. MMSI: 367086140.

Date/timePositionNaut miles runAvg speedWind from/ knotsBaromVisibWave heightAir tempDewpointWater temp
2017-Oct-22 17:01N 45°56' W 122°49'1223.1
2017-Oct-22 16:30N 46°06' W 122°56'611.3
2017-Oct-22 16:01N 46°01' W 122°52'1325.2
2017-Oct-22 15:31N 45°49' W 122°48'10 0.5
2017-Oct-21 17:19N 45°39' W 122°45'0 0.0
2017-Oct-21 17:00N 45°39' W 122°45'0 0.0
2017-Oct-21 16:31N 45°39' W 122°45'0 0.0
2017-Oct-21 16:00N 45°39' W 122°45'0 0.0
2017-Oct-21 15:30N 45°39' W 122°45'0 0.0
2017-Oct-21 15:00N 45°39' W 122°45'0 0.0
2017-Oct-21 14:01N 45°39' W 122°45'0 0.0
2017-Oct-21 13:31N 45°39' W 122°45'0 0.0
2017-Oct-21 13:01N 45°39' W 122°45'0 0.0
2017-Oct-21 12:31N 45°39' W 122°45'0 0.0
2017-Oct-21 11:59N 45°39' W 122°45'0 0.0
2017-Oct-21 11:31N 45°39' W 122°45'0 0.0
2017-Oct-21 11:01N 45°39' W 122°45'0 0.0
2017-Oct-21 10:31N 45°39' W 122°45'0 0.0
2017-Oct-21 10:00N 45°39' W 122°45'0 0.0
2017-Oct-21 09:30N 45°39' W 122°45'0 0.0
2017-Oct-21 09:01N 45°39' W 122°45'0 0.0
2017-Oct-21 08:30N 45°39' W 122°45'0 0.0
2017-Oct-21 08:00N 45°39' W 122°45'0 0.0
2017-Oct-21 07:30N 45°39' W 122°45'0 0.0
2017-Oct-21 07:00N 45°39' W 122°45'0 0.0
2017-Oct-21 06:30N 45°39' W 122°45'0 0.0
2017-Oct-21 06:00N 45°39' W 122°45'0 0.0
2017-Oct-21 05:30N 45°39' W 122°45'0 0.0
2017-Oct-21 05:00N 45°39' W 122°45'0 0.0
2017-Oct-21 04:30N 45°39' W 122°45'0 0.0
2017-Oct-21 04:00N 45°39' W 122°45'1 1.6
2017-Oct-21 03:31N 45°39' W 122°46'1325.7
2017-Oct-21 03:00N 45°52' W 122°47'915.9
2017-Oct-21 02:28N 46°01' W 122°51'0 0.0
2017-Oct-21 01:59N 46°01' W 122°51'0 0.0
2017-Oct-21 01:31N 46°01' W 122°51'0 0.0
2017-Oct-21 01:00N 46°01' W 122°51'0 0.0
2017-Oct-21 00:24N 46°01' W 122°51'0 0.0
2017-Oct-20 23:17N 46°01' W 122°51'0 0.0
2017-Oct-20 22:58N 46°01' W 122°51'0 0.0
2017-Oct-20 22:30N 46°01' W 122°51'0 0.0
2017-Oct-20 22:00N 46°01' W 122°51'0 0.0
2017-Oct-20 21:29N 46°01' W 122°51'0 0.0
2017-Oct-20 21:00N 46°01' W 122°51'0 0.0
2017-Oct-20 20:30N 46°01' W 122°51'0 0.0
2017-Oct-20 19:57N 46°01' W 122°51'0 0.0
2017-Oct-20 19:26N 46°01' W 122°51'0 0.0
2017-Oct-20 18:59N 46°01' W 122°51'0 0.0
2017-Oct-20 18:30N 46°01' W 122°51'0 0.0
2017-Oct-20 18:00N 46°01' W 122°51'0 0.1
2017-Oct-20 17:30N 46°01' W 122°51'0 0.0
2017-Oct-20 17:00N 46°01' W 122°51'0 0.0
2017-Oct-20 16:30N 46°01' W 122°51'0 0.0
2017-Oct-20 16:00N 46°01' W 122°51'0 0.0
2017-Oct-20 15:30N 46°01' W 122°51'1 2.3
2017-Oct-20 15:01N 46°01' W 122°52'1 1.2
2017-Oct-20 14:00N 46°01' W 122°51'0 0.0
2017-Oct-20 13:28N 46°01' W 122°51'2 3.6
2017-Oct-20 13:00N 45°59' W 122°50'0 0.0
2017-Oct-20 12:31N 45°59' W 122°50'0 0.0
2017-Oct-20 12:00N 45°59' W 122°50'0 0.0
2017-Oct-20 11:30N 45°59' W 122°50'2 3.4
2017-Oct-20 11:00N 46°01' W 122°51'0 0.0
2017-Oct-20 10:30N 46°01' W 122°51'0 0.0
2017-Oct-20 10:00N 46°01' W 122°51'0 0.0
2017-Oct-20 09:30N 46°01' W 122°51'0 0.0
2017-Oct-20 09:00N 46°01' W 122°51'0 0.0
2017-Oct-20 08:30N 46°01' W 122°51'0 0.0
2017-Oct-20 08:01N 46°01' W 122°51'0 0.0
2017-Oct-20 07:30N 46°01' W 122°51'0 0.0
2017-Oct-20 06:59N 46°01' W 122°51'0 0.0
2017-Oct-20 06:31N 46°01' W 122°51'0 0.1
2017-Oct-20 05:57N 46°01' W 122°51'0 0.1
2017-Oct-20 05:31N 46°01' W 122°51'714.3
2017-Oct-20 05:00N 45°54' W 122°48'1121.0
2017-Oct-20 04:30N 45°43' W 122°46'510.5
2017-Oct-20 04:00N 45°38' W 122°43'0 0.1
2017-Oct-20 03:30N 45°38' W 122°43'0 0.1
2017-Oct-20 03:00N 45°38' W 122°43'0 0.0
2017-Oct-20 02:30N 45°38' W 122°43'2 3.0
2017-Oct-20 02:00N 45°39' W 122°45'1 2.6
2017-Oct-20 01:30N 45°40' W 122°46'1325.9
2017-Oct-20 01:01N 45°53' W 122°48'8 0.3
2017-Oct-18 16:31N 46°01' W 122°51'0 0.8
2017-Oct-18 16:30N 46°01' W 122°51'0 0.0
2017-Oct-18 15:52N 46°01' W 122°51'0 0.0
2017-Oct-18 15:24N 46°01' W 122°51'0 0.0
2017-Oct-18 15:01N 46°01' W 122°51'0 0.0
2017-Oct-18 14:00N 46°01' W 122°51'0 0.0
2017-Oct-18 13:30N 46°01' W 122°51'0 0.0
2017-Oct-18 12:44N 46°01' W 122°51'0 0.0
2017-Oct-18 12:26N 46°01' W 122°51'0 0.0
2017-Oct-18 12:00N 46°01' W 122°51'0 0.0
2017-Oct-18 11:30N 46°01' W 122°51'0 0.0
2017-Oct-18 11:00N 46°01' W 122°51'0 0.0
2017-Oct-18 10:29N 46°01' W 122°51'0 0.0
2017-Oct-18 09:52N 46°01' W 122°51'0 0.0
2017-Oct-18 09:29N 46°01' W 122°51'0 0.0
2017-Oct-18 08:47N 46°01' W 122°51'0 0.0
2017-Oct-18 08:18N 46°01' W 122°51'0 0.0
2017-Oct-18 08:01N 46°01' W 122°51'0 0.0
2017-Oct-18 07:31N 46°01' W 122°51'0 0.0
2017-Oct-18 06:59N 46°01' W 122°51'0 0.0
2017-Oct-18 06:31N 46°01' W 122°51'0 0.0
2017-Oct-18 05:45N 46°01' W 122°51'0 0.0
2017-Oct-18 05:30N 46°01' W 122°51'0 0.0
2017-Oct-18 05:00N 46°01' W 122°51'2 3.2
2017-Oct-18 04:30N 45°59' W 122°50'0 0.1
2017-Oct-18 04:01N 45°59' W 122°50'1 1.4
2017-Oct-18 03:30N 45°60' W 122°51'612.4
2017-Oct-18 03:01N 46°05' W 122°55'1 2.3
2017-Oct-18 02:30N 46°06' W 122°55'1 1.9
2017-Oct-18 02:01N 46°06' W 122°55'815.2
2017-Oct-18 01:30N 45°59' W 122°50'0 0.0
2017-Oct-18 01:00N 45°59' W 122°50'2 3.4
2017-Oct-18 00:30N 46°01' W 122°51'815.7
2017-Oct-18 00:01N 46°07' W 122°58'0 0.9
2017-Oct-17 23:31N 46°07' W 122°58'815.7
2017-Oct-17 23:00N 46°01' W 122°51'611.8
2017-Oct-17 22:30N 46°06' W 122°55'2 4.6
2017-Oct-17 22:01N 46°04' W 122°54'4 7.8
2017-Oct-17 21:30N 46°01' W 122°51'4 8.9
2017-Oct-17 21:01N 46°04' W 122°54'510.3
2017-Oct-17 20:31N 46°08' W 122°60'918.1
2017-Oct-17 20:01N 46°01' W 122°51'0 0.7
2017-Oct-17 19:30N 46°01' W 122°51'0 1.0
2017-Oct-17 19:00N 46°01' W 122°52'0 1.0
2017-Oct-17 18:30N 46°01' W 122°51'0 0.0
2017-Oct-17 18:00N 46°01' W 122°51'0 0.0
2017-Oct-17 17:30N 46°01' W 122°51'0 0.0
2017-Oct-17 17:00N 46°01' W 122°51'0 0.1
2017-Oct-17 16:31N 46°01' W 122°51'0 0.0
2017-Oct-17 16:00N 46°01' W 122°51'0 0.0
2017-Oct-17 15:17N 46°01' W 122°51'0 0.0
2017-Oct-17 14:59N 46°01' W 122°51'1 1.7
2017-Oct-17 14:31N 46°01' W 122°52'1223.6
2017-Oct-17 14:01N 46°09' W 123°04'510.5
2017-Oct-17 13:30N 46°06' W 122°58'812.9
2017-Oct-17 12:56N 46°01' W 122°51'0 0.0
2017-Oct-17 12:14N 46°01' W 122°51'0 0.0
2017-Oct-17 12:00N 46°01' W 122°51'0 0.0
2017-Oct-17 11:30N 46°01' W 122°51'0 0.0
2017-Oct-17 11:00N 46°01' W 122°51'0 0.0
2017-Oct-17 10:29N 46°01' W 122°51'0 0.0
2017-Oct-17 09:57N 46°01' W 122°51'0 0.0
2017-Oct-17 09:26N 46°01' W 122°51'0 0.0
2017-Oct-17 08:59N 46°01' W 122°51'0 0.0
2017-Oct-17 08:30N 46°01' W 122°51'0 0.0
2017-Oct-17 08:00N 46°01' W 122°51'0 0.0
2017-Oct-17 07:30N 46°01' W 122°51'0 0.0
2017-Oct-17 07:00N 46°01' W 122°51'0 0.0
2017-Oct-17 06:29N 46°01' W 122°51'0 0.0
2017-Oct-17 06:00N 46°01' W 122°51'0 0.0
2017-Oct-17 05:21N 46°01' W 122°51'0 0.0
2017-Oct-17 05:00N 46°01' W 122°51'0 0.0
2017-Oct-17 04:30N 46°01' W 122°51'0 0.0
2017-Oct-17 04:00N 46°01' W 122°51'0 0.0
2017-Oct-17 03:30N 46°01' W 122°51'0 0.0
2017-Oct-17 03:00N 46°01' W 122°51'0 0.0
2017-Oct-17 02:30N 46°01' W 122°51'0 0.0
2017-Oct-17 02:00N 46°01' W 122°51'0 0.0
2017-Oct-17 01:30N 46°01' W 122°51'1 2.4
2017-Oct-17 01:01N 46°01' W 122°52'1020.1
2017-Oct-17 00:30N 46°09' W 123°02'3 6.2
2017-Oct-17 00:01N 46°07' W 122°58'816.3
2017-Oct-16 23:30N 46°01' W 122°51'0 0.0
2017-Oct-16 23:00N 46°01' W 122°51'0 0.0
2017-Oct-16 22:30N 46°01' W 122°51'0 0.0
2017-Oct-16 21:58N 46°01' W 122°51'0 0.0
2017-Oct-16 21:27N 46°01' W 122°51'0 0.0
2017-Oct-16 20:59N 46°01' W 122°51'0 0.0
2017-Oct-16 20:30N 46°01' W 122°51'0 0.0
2017-Oct-16 20:00N 46°01' W 122°51'0 0.0
2017-Oct-16 19:29N 46°01' W 122°51'0 0.0
2017-Oct-16 19:00N 46°01' W 122°51'0 0.0
2017-Oct-16 18:29N 46°01' W 122°51'0 0.0
2017-Oct-16 18:00N 46°01' W 122°51'0 0.0
2017-Oct-16 17:30N 46°01' W 122°51'0 0.0
2017-Oct-16 17:00N 46°01' W 122°51'0 0.0
2017-Oct-16 16:30N 46°01' W 122°51'0 0.0
2017-Oct-16 15:58N 46°01' W 122°51'0 0.0
2017-Oct-16 15:24N 46°01' W 122°51'0 0.1
2017-Oct-16 15:01N 46°01' W 122°51'7 7.4
2017-Oct-16 14:00N 46°06' W 122°58'5 9.7
2017-Oct-16 13:30N 46°03' W 122°53'3 5.0
2017-Oct-16 12:58N 46°01' W 122°51'0 0.0
2017-Oct-16 12:25N 46°01' W 122°51'0 0.0
2017-Oct-16 12:00N 46°01' W 122°51'0 0.0
2017-Oct-16 11:30N 46°01' W 122°51'0 0.0
2017-Oct-16 11:00N 46°01' W 122°51'0 0.0
2017-Oct-16 10:30N 46°01' W 122°51'0 0.0
2017-Oct-16 10:00N 46°01' W 122°51'0 0.0
2017-Oct-16 09:26N 46°01' W 122°51'0 0.0
2017-Oct-16 08:58N 46°01' W 122°51'0 0.0
2017-Oct-16 08:31N 46°01' W 122°51'0 0.0
2017-Oct-16 08:00N 46°01' W 122°51'0 0.0
2017-Oct-16 07:20N 46°01' W 122°51'0 0.0
2017-Oct-16 07:00N 46°01' W 122°51'0 0.0
2017-Oct-16 06:30N 46°01' W 122°51'0 0.0
2017-Oct-16 06:00N 46°01' W 122°51'0 0.0
2017-Oct-16 05:20N 46°01' W 122°51'0 0.0
2017-Oct-16 05:00N 46°01' W 122°51'0 0.0
2017-Oct-16 04:30N 46°01' W 122°51'0 0.0
2017-Oct-16 04:00N 46°01' W 122°51'0 0.0
2017-Oct-16 03:30N 46°01' W 122°51'0 0.0
2017-Oct-16 03:00N 46°01' W 122°51'0 0.0
2017-Oct-16 02:30N 46°01' W 122°51'0 0.0
2017-Oct-16 02:00N 46°01' W 122°51'0 0.0
2017-Oct-16 01:30N 46°01' W 122°51'815.1
2017-Oct-16 01:01N 46°06' W 122°58'510.2
2017-Oct-16 00:30N 46°09' W 123°04'1225.0
2017-Oct-16 00:00N 46°01' W 122°51'0 0.0
2017-Oct-15 23:30N 46°01' W 122°51'0 0.0
2017-Oct-15 23:00N 46°01' W 122°51'0 0.0
2017-Oct-15 22:31N 46°01' W 122°51'0 0.0
2017-Oct-15 22:00N 46°01' W 122°51'0 0.0
2017-Oct-15 21:30N 46°01' W 122°51'0 0.0
2017-Oct-15 21:01N 46°01' W 122°51'0 0.0
2017-Oct-15 20:29N 46°01' W 122°51'0 0.0
2017-Oct-15 19:58N 46°01' W 122°51'0 0.0
2017-Oct-15 19:25N 46°01' W 122°51'0 0.0
2017-Oct-15 18:59N 46°01' W 122°51'0 0.0
2017-Oct-15 18:30N 46°01' W 122°51'0 0.0
2017-Oct-15 17:59N 46°01' W 122°51'0 0.0
2017-Oct-15 17:30N 46°01' W 122°51'0 0.0
2017-Oct-15 16:59N 46°01' W 122°51'0 0.1
2017-Oct-15 16:30N 46°01' W 122°51'1020.4
2017-Oct-15 16:01N 46°08' W 123°01'3 5.4
2017-Oct-15 15:30N 46°06' W 122°58'714.7
2017-Oct-15 15:01N 46°01' W 122°51'0 0.2
2017-Oct-15 13:54N 46°01' W 122°51'0 0.0
2017-Oct-15 13:28N 46°01' W 122°51'0 0.0
2017-Oct-15 13:00N 46°01' W 122°51'0 0.0
2017-Oct-15 12:26N 46°01' W 122°51'0 0.0
2017-Oct-15 12:00N 46°01' W 122°51'0 0.0
2017-Oct-15 11:31N 46°01' W 122°51'0 0.0
2017-Oct-15 10:58N 46°01' W 122°51'0 0.0
2017-Oct-15 10:29N 46°01' W 122°51'0 0.0
2017-Oct-15 10:00N 46°01' W 122°51'0 0.0
2017-Oct-15 09:27N 46°01' W 122°51'0 0.0
2017-Oct-15 09:00N 46°01' W 122°51'0 0.0
2017-Oct-15 08:30N 46°01' W 122°51'0 0.0
2017-Oct-15 08:01N 46°01' W 122°51'0 0.0
2017-Oct-15 07:30N 46°01' W 122°51'0 0.0
2017-Oct-15 07:00N 46°01' W 122°51'0 0.0
2017-Oct-15 06:30N 46°01' W 122°51'0 0.0
2017-Oct-15 05:49N 46°01' W 122°51'0 0.0
2017-Oct-15 05:30N 46°01' W 122°51'0 0.0
2017-Oct-15 05:00N 46°01' W 122°51'0 0.0
2017-Oct-15 04:30N 46°01' W 122°51'0 0.0
2017-Oct-15 04:00N 46°01' W 122°51'0 0.0
2017-Oct-15 03:30N 46°01' W 122°51'0 0.0
2017-Oct-15 03:01N 46°01' W 122°51'0 0.0
2017-Oct-15 02:29N 46°01' W 122°51'0 0.0
2017-Oct-15 01:41N 46°01' W 122°51'0 0.0
2017-Oct-15 01:20N 46°01' W 122°51'3 8.1
2017-Oct-15 01:01N 46°03' W 122°53'1122.4
2017-Oct-15 00:30N 46°10' W 123°05'1122.6
2017-Oct-15 00:01N 46°03' W 122°53'510.2
2017-Oct-14 23:30N 45°58' W 122°50'1828.3
2017-Oct-14 22:53N 45°41' W 122°46'2 5.7
2017-Oct-14 22:30N 45°39' W 122°45'0 0.0
2017-Oct-14 22:00N 45°39' W 122°45'0 0.0
2017-Oct-14 21:30N 45°39' W 122°45'0 0.0
2017-Oct-14 21:00N 45°39' W 122°45'0 0.0
2017-Oct-14 20:30N 45°39' W 122°45'0 0.0
2017-Oct-14 20:00N 45°39' W 122°45'0 0.0
2017-Oct-14 19:30N 45°39' W 122°45'0 0.0
2017-Oct-14 19:00N 45°39' W 122°45'0 0.0
2017-Oct-14 18:30N 45°39' W 122°45'0 0.0
2017-Oct-14 18:00N 45°39' W 122°45'0 0.0
2017-Oct-14 17:30N 45°39' W 122°45'0 0.0
2017-Oct-14 17:00N 45°39' W 122°45'0 0.0
2017-Oct-14 16:30N 45°39' W 122°45'0 0.0
2017-Oct-14 16:00N 45°39' W 122°45'0 0.0
2017-Oct-14 15:30N 45°39' W 122°45'0 0.0
2017-Oct-14 15:00N 45°39' W 122°45'0 0.0
2017-Oct-14 14:30N 45°39' W 122°45'0 0.0
2017-Oct-14 14:00N 45°39' W 122°45'0 0.0
2017-Oct-14 13:30N 45°39' W 122°45'0 0.0
2017-Oct-14 13:00N 45°39' W 122°45'0 0.0
2017-Oct-14 12:30N 45°39' W 122°45'0 0.0
2017-Oct-14 12:00N 45°39' W 122°45'0 0.0
2017-Oct-14 11:30N 45°39' W 122°45'0 0.0
2017-Oct-14 11:00N 45°39' W 122°45'0 0.0
2017-Oct-14 10:30N 45°39' W 122°45'0 0.0
2017-Oct-14 10:00N 45°39' W 122°45'0 0.0
2017-Oct-14 09:30N 45°39' W 122°45'0 0.0
2017-Oct-14 09:00N 45°39' W 122°45'0 0.0
2017-Oct-14 08:30N 45°39' W 122°45'0 0.0
2017-Oct-14 08:00N 45°39' W 122°45'0 0.0
2017-Oct-14 07:30N 45°39' W 122°45'0 0.0
2017-Oct-14 06:58N 45°39' W 122°45'0 0.0
2017-Oct-14 06:30N 45°39' W 122°45'2 3.8
2017-Oct-14 06:00N 45°40' W 122°46'2 3.9
2017-Oct-14 05:30N 45°39' W 122°45'1418.0
2017-Oct-14 04:45N 45°52' W 122°48'0 0.1
2017-Oct-14 04:27N 45°52' W 122°48'919.8
2017-Oct-14 04:00N 46°01' W 122°51'0 0.1
2017-Oct-14 03:21N 46°01' W 122°51'0 0.0
2017-Oct-14 03:01N 46°01' W 122°51'0 0.0
2017-Oct-14 02:30N 46°01' W 122°51'0 0.0
2017-Oct-14 02:00N 46°01' W 122°51'0 0.0
2017-Oct-14 01:30N 46°01' W 122°51'0 0.0
2017-Oct-14 01:00N 46°01' W 122°51'0 0.0
2017-Oct-14 00:30N 46°01' W 122°51'0 0.0
2017-Oct-14 00:00N 46°01' W 122°51'0 0.0
2017-Oct-13 23:31N 46°01' W 122°51'0 0.0
2017-Oct-13 23:00N 46°01' W 122°51'0 0.0
2017-Oct-13 22:30N 46°01' W 122°51'0 0.0
2017-Oct-13 21:58N 46°01' W 122°51'4 5.9
2017-Oct-13 21:15N 46°04' W 122°54'625.3
2017-Oct-13 21:00N 46°08' W 123°01'0 0.8
2017-Oct-13 20:30N 46°08' W 123°01'3 6.5
2017-Oct-13 20:00N 46°06' W 122°58'1 2.2
2017-Oct-13 19:30N 46°06' W 122°56'612.9
2017-Oct-13 19:01N 46°01' W 122°51'0 0.0
2017-Oct-13 18:20N 46°01' W 122°51'0 0.0
2017-Oct-13 17:55N 46°01' W 122°51'0 0.0
2017-Oct-13 17:14N 46°01' W 122°51'0 0.0
2017-Oct-13 17:00N 46°01' W 122°51'0 0.0
2017-Oct-13 16:31N 46°01' W 122°51'0 0.0
2017-Oct-13 15:55N 46°01' W 122°51'0 0.0
2017-Oct-13 15:30N 46°01' W 122°51'0 0.0
2017-Oct-13 15:00N 46°01' W 122°51'0 0.0
2017-Oct-13 14:30N 46°01' W 122°51'0 0.0
2017-Oct-13 13:50N 46°01' W 122°51'0 0.1
2017-Oct-13 13:30N 46°01' W 122°51'0 0.0
2017-Oct-13 12:45N 46°01' W 122°51'0 0.2
2017-Oct-13 12:30N 46°01' W 122°51'0 0.1
2017-Oct-13 11:56N 46°01' W 122°51'0 0.0
2017-Oct-13 11:30N 46°01' W 122°51'0 0.0
2017-Oct-13 10:57N 46°01' W 122°51'0 0.0
2017-Oct-13 10:28N 46°01' W 122°51'0 0.0
2017-Oct-13 10:00N 46°01' W 122°51'0 0.0
2017-Oct-13 09:15N 46°01' W 122°51'0 0.0
2017-Oct-13 09:00N 46°01' W 122°51'0 0.0
2017-Oct-13 08:31N 46°01' W 122°51'0 0.0
2017-Oct-13 07:52N 46°01' W 122°51'0 0.0
2017-Oct-13 07:30N 46°01' W 122°51'0 0.0
2017-Oct-13 07:00N 46°01' W 122°51'0 0.0
2017-Oct-13 06:28N 46°01' W 122°51'0 0.0
2017-Oct-13 05:55N 46°01' W 122°51'0 0.0
2017-Oct-13 05:30N 46°01' W 122°51'0 0.0
2017-Oct-13 05:00N 46°01' W 122°51'0 0.0
2017-Oct-13 04:30N 46°01' W 122°51'0 0.0
2017-Oct-13 04:00N 46°01' W 122°51'0 0.0
2017-Oct-13 03:30N 46°01' W 122°51'0 0.0
2017-Oct-13 03:01N 46°01' W 122°51'0 0.0
2017-Oct-13 02:19N 46°01' W 122°51'0 0.0
2017-Oct-13 02:01N 46°01' W 122°51'0 0.0
2017-Oct-13 01:30N 46°01' W 122°51'0 0.0
2017-Oct-13 00:59N 46°01' W 122°51'612.9
2017-Oct-13 00:31N 46°06' W 122°56'0 0.6
2017-Oct-13 00:00N 46°06' W 122°56'816.4
2017-Oct-12 23:30N 46°10' W 123°06'2 4.9
2017-Oct-12 23:00N 46°09' W 123°03'510.0
2017-Oct-12 22:31N 46°06' W 122°57'714.7
2017-Oct-12 22:01N 46°10' W 123°06'7 2.1
2017-Oct-12 18:46N 46°06' W 122°58'1 5.5
2017-Oct-12 18:30N 46°07' W 122°59'0 0.3
2017-Oct-12 18:01N 46°08' W 122°59'0 0.2
2017-Oct-12 17:30N 46°08' W 122°59'  

Dump ship's entire track history